Flugplatz Dankern

METAR ETWM TAF EHGG
2 °C
°C
-
°C
1h
Wiek
20:29:15
LT
19:29
UTC
0 ft

1.000

2.000

3.000

4.000

5.000

UNKN
<?= Yii::t('app', 'Wind direction') ?> <?= Yii::t('app', 'of'); ?>
080°
08:08
Wschód słońca
87%
Wilgotność
Siła wiatru
Zamknięte/Śnieg
Zasięg wzroku na RWY
Stan RWY
Widzialność pionowa
Min. widoczność
CAVOK
Trend
Korekta
Raport specjalny
1037 hPa
QNH
METAR ETWM 041820Z AUTO 08002KT //// // ////// 02/00 Q1037 ///
Niebo czyste
1 kt
1 kt
20:00
VFR
5 kt
21:00
VFR
5 kt
22:00
VFR
5 kt
23:00
VFR
5 kt
00:00
IFR
5 kt
01:00
IFR
5 kt
02:00
IFR
5 kt
Widoczność
Brak
Sufit
2 kt
Wiatr
metar-taf.com/DE-0195

Metar-Taf.com

Dekoder wizualny

My i strony trzecie śledzimy Twoje zachowanie internetowe na naszej stronie za pomocą plików cookie. Jeśli kontynuujesz, zakładamy, że zgadzasz się z naszymi polityka plików cookie.